Time;durP1;ratioP1;P1;durP2;ratioP2;P2;SDS_P1;SDS_P2;PMS_P1;PMS_P2;Temp;Humidity;BMP_temperature;BMP_pressure;BME280_temperature;BME280_humidity;BME280_pressure;Samples;Min_cycle;Max_cycle;Signal;HPM_P1;HPM_P2
2024/03/06 00:01:58;;;;;;;5.43;2.63;;;28.30;99.90;;;;;;5039467;28;20064;-71
2024/03/06 00:04:25;;;;;;;7.38;2.55;;;28.50;99.90;;;;;;5040394;28;20032;-60
2024/03/06 00:06:53;;;;;;;6.80;2.67;;;28.70;99.90;;;;;;5043768;28;20763;-62
2024/03/06 00:09:20;;;;;;;5.70;2.35;;;29.00;99.90;;;;;;5038160;28;20120;-62
2024/03/06 00:11:47;;;;;;;5.72;2.65;;;29.20;99.90;;;;;;5043037;28;20032;-63
2024/03/06 00:14:14;;;;;;;8.13;2.63;;;29.50;99.90;;;;;;5045723;28;20086;-62
2024/03/06 00:16:42;;;;;;;11.68;7.50;;;29.80;99.90;;;;;;5043068;28;20643;-71
2024/03/06 00:19:09;;;;;;;8.93;2.70;;;30.00;99.90;;;;;;5040243;28;20029;-66
2024/03/06 00:21:36;;;;;;;7.65;2.45;;;30.00;99.90;;;;;;5032829;28;20036;-60
2024/03/06 00:24:04;;;;;;;4.72;1.90;;;30.00;99.90;;;;;;5032445;28;20036;-71
2024/03/06 00:26:31;;;;;;;5.18;2.78;;;30.10;99.80;;;;;;5034704;28;20041;-60
2024/03/06 00:28:58;;;;;;;5.90;2.85;;;30.00;99.80;;;;;;5043535;28;20475;-71
2024/03/06 00:31:25;;;;;;;8.70;3.22;;;30.20;99.90;;;;;;5037003;28;20025;-60
2024/03/06 00:33:52;;;;;;;7.32;3.00;;;30.50;99.70;;;;;;5038601;28;20043;-62
2024/03/06 00:36:19;;;;;;;10.07;3.58;;;30.80;99.40;;;;;;5043338;28;20033;-64
2024/03/06 00:38:46;;;;;;;5.30;2.67;;;30.90;99.40;;;;;;5041798;28;20029;-65
2024/03/06 00:41:13;;;;;;;7.25;4.55;;;31.00;98.70;;;;;;5042332;28;20032;-72
2024/03/06 00:43:40;;;;;;;5.35;3.20;;;31.20;98.80;;;;;;5041975;28;20021;-65
2024/03/06 00:46:06;;;;;;;10.23;6.00;;;31.50;98.30;;;;;;5043976;28;20028;-72
2024/03/06 00:48:34;;;;;;;9.35;3.30;;;31.30;98.50;;;;;;5040376;28;20024;-64
2024/03/06 00:51:00;;;;;;;6.38;3.03;;;31.40;98.10;;;;;;5043945;28;20033;-65
2024/03/06 00:53:27;;;;;;;5.53;2.17;;;31.60;97.70;;;;;;5042990;28;20067;-62
2024/03/06 00:55:54;;;;;;;5.63;2.00;;;32.00;97.40;;;;;;5044013;28;20024;-72
2024/03/06 00:58:21;;;;;;;5.22;2.35;;;32.10;96.70;;;;;;5041722;28;20052;-63
2024/03/06 01:00:48;;;;;;;5.18;1.80;;;32.30;96.70;;;;;;5042763;28;20104;-67
2024/03/06 01:03:15;;;;;;;4.93;2.08;;;31.90;96.00;;;;;;5039329;28;20540;-67
2024/03/06 01:05:43;;;;;;;7.40;3.65;;;32.00;96.00;;;;;;5043085;28;20079;-72
2024/03/06 01:08:10;;;;;;;5.35;2.70;;;32.10;95.90;;;;;;5039284;28;20086;-65
2024/03/06 01:10:37;;;;;;;4.97;2.60;;;31.70;95.30;;;;;;5042409;28;20024;-73
2024/03/06 01:13:04;;;;;;;5.22;2.90;;;31.50;95.40;;;;;;5032287;28;20026;-72
2024/03/06 01:15:32;;;;;;;5.28;2.40;;;31.70;96.10;;;;;;5038698;28;20025;-65
2024/03/06 01:17:59;;;;;;;5.32;1.98;;;32.20;96.10;;;;;;5030204;28;20034;-62
2024/03/06 01:20:26;;;;;;;5.07;2.03;;;32.50;95.20;;;;;;5035939;28;20044;-65
2024/03/06 01:22:53;;;;;;;5.20;1.70;;;32.70;94.90;;;;;;5035780;28;20423;-65
2024/03/06 01:25:20;;;;;;;6.22;2.38;;;33.00;94.20;;;;;;5030253;28;20029;-66
2024/03/06 01:27:49;;;;;;;5.72;1.95;;;33.10;94.10;;;;;;5035419;28;20049;-65
2024/03/06 01:30:16;;;;;;;6.50;3.58;;;33.20;94.50;;;;;;5041490;28;20086;-62
2024/03/06 01:32:43;;;;;;;5.97;2.80;;;33.10;94.20;;;;;;5032416;28;20041;-68
2024/03/06 01:35:10;;;;;;;7.07;2.67;;;33.00;94.30;;;;;;5032176;28;20056;-68
2024/03/06 01:37:37;;;;;;;10.30;3.38;;;33.40;93.80;;;;;;5035205;28;20052;-62
2024/03/06 01:40:05;;;;;;;7.18;2.20;;;33.50;94.60;;;;;;5031583;28;20520;-72
2024/03/06 01:42:32;;;;;;;3.75;2.03;;;33.90;93.50;;;;;;5028081;28;20033;-62
2024/03/06 01:44:59;;;;;;;4.32;2.35;;;34.20;93.40;;;;;;5040238;28;20182;-68
2024/03/06 01:47:26;;;;;;;5.65;2.60;;;34.00;93.40;;;;;;5032005;28;20030;-68
2024/03/06 01:49:53;;;;;;;7.25;2.47;;;34.20;93.80;;;;;;5026455;28;20079;-63
2024/03/06 01:52:22;;;;;;;5.03;2.33;;;34.20;93.50;;;;;;5026551;28;20025;-64
2024/03/06 01:54:50;;;;;;;5.85;2.15;;;34.20;93.20;;;;;;5033786;28;20013;-64
2024/03/06 01:57:19;;;;;;;5.10;2.15;;;34.20;93.50;;;;;;5026551;28;20041;-64
2024/03/06 01:59:47;;;;;;;4.22;1.88;;;34.30;93.20;;;;;;5027031;28;20699;-62
2024/03/06 02:02:14;;;;;;;6.93;2.28;;;34.20;93.40;;;;;;5026653;28;20435;-71
2024/03/06 02:04:41;;;;;;;4.50;2.15;;;34.30;93.30;;;;;;5026900;28;20049;-62
2024/03/06 02:07:11;;;;;;;8.43;2.45;;;34.80;93.20;;;;;;5026371;28;20037;-68
2024/03/06 02:09:39;;;;;;;4.43;2.05;;;35.00;92.40;;;;;;5026022;28;20026;-71
2024/03/06 02:12:10;;;;;;;6.82;2.00;;;34.60;92.60;;;;;;5033354;28;20034;-69
2024/03/06 02:14:37;;;;;;;3.30;1.98;;;34.50;93.00;;;;;;5027804;28;20125;-62
2024/03/06 02:17:04;;;;;;;4.75;2.10;;;34.90;93.00;;;;;;5027783;28;20105;-72
2024/03/06 02:19:41;;;;;;;6.70;2.60;;;35.00;92.60;;;;;;5026904;28;20048;-71
2024/03/06 02:22:09;;;;;;;9.88;2.95;;;35.00;92.50;;;;;;5027340;28;20033;-67
2024/03/06 02:24:37;;;;;;;5.30;2.33;;;35.00;92.80;;;;;;5027517;28;20029;-64
2024/03/06 02:27:05;;;;;;;4.63;2.00;;;35.00;92.50;;;;;;5030281;28;20021;-71
2024/03/06 02:29:35;;;;;;;6.78;2.25;;;35.10;92.10;;;;;;5027428;28;20029;-69
2024/03/06 02:32:05;;;;;;;7.38;2.33;;;35.10;92.20;;;;;;5034130;28;20021;-62
2024/03/06 02:34:32;;;;;;;6.13;2.20;;;35.00;92.40;;;;;;5027266;28;20411;-62
2024/03/06 02:36:59;;;;;;;5.18;2.40;;;34.80;92.00;;;;;;5027441;28;20041;-68
2024/03/06 02:39:26;;;;;;;5.43;1.92;;;34.90;92.50;;;;;;5028718;28;20124;-62
2024/03/06 02:41:53;;;;;;;4.47;2.50;;;35.10;92.00;;;;;;5028066;28;20033;-62
2024/03/06 02:44:20;;;;;;;3.88;1.92;;;35.10;91.90;;;;;;5039744;28;20036;-74
2024/03/06 02:46:49;;;;;;;4.53;2.10;;;35.00;91.90;;;;;;5040445;28;20033;-63
2024/03/06 02:49:17;;;;;;;5.45;2.47;;;35.10;92.20;;;;;;5033983;28;20085;-68
2024/03/06 02:51:45;;;;;;;4.75;1.63;;;35.40;92.30;;;;;;5032198;28;20116;-68
2024/03/06 02:54:11;;;;;;;6.75;2.08;;;35.40;91.50;;;;;;5030937;28;20017;-62
2024/03/06 02:56:39;;;;;;;3.88;2.20;;;35.70;91.60;;;;;;5034384;28;20388;-64
2024/03/06 02:59:06;;;;;;;5.15;2.17;;;35.90;91.80;;;;;;5032333;28;20030;-74
2024/03/06 03:01:33;;;;;;;6.63;2.78;;;36.40;91.90;;;;;;5038500;28;20033;-73
2024/03/06 03:04:00;;;;;;;6.10;2.45;;;36.80;91.60;;;;;;5036349;28;20029;-72
2024/03/06 03:06:28;;;;;;;6.97;2.20;;;37.00;91.20;;;;;;5031894;28;20423;-62
2024/03/06 03:08:56;;;;;;;3.88;2.28;;;37.00;91.20;;;;;;5032325;28;20053;-71
2024/03/06 03:11:23;;;;;;;5.22;2.30;;;36.90;90.70;;;;;;5037513;28;20432;-72
2024/03/06 03:13:50;;;;;;;4.40;2.22;;;36.40;91.10;;;;;;5036852;28;20037;-74
2024/03/06 03:16:21;;;;;;;6.40;2.45;;;36.10;91.40;;;;;;5039042;28;20045;-62
2024/03/06 03:18:48;;;;;;;5.00;2.08;;;35.90;91.60;;;;;;5032553;28;20030;-64
2024/03/06 03:21:15;;;;;;;4.63;1.77;;;35.60;91.90;;;;;;5029610;28;20451;-74
2024/03/06 03:23:42;;;;;;;3.92;1.98;;;35.90;92.10;;;;;;5035098;28;20140;-68
2024/03/06 03:26:12;;;;;;;3.85;1.67;;;36.10;91.10;;;;;;5036015;28;20057;-76
2024/03/06 03:28:40;;;;;;;5.47;2.20;;;36.40;91.60;;;;;;5032257;28;20353;-63
2024/03/06 03:31:08;;;;;;;4.43;2.10;;;36.90;90.80;;;;;;5040723;28;20081;-62
2024/03/06 03:33:39;;;;;;;8.57;1.92;;;37.00;91.20;;;;;;5039105;28;20052;-67
2024/03/06 03:36:07;;;;;;;6.43;2.22;;;37.30;90.90;;;;;;5037343;28;20029;-62
2024/03/06 03:38:38;;;;;;;4.82;1.95;;;37.50;90.00;;;;;;5032040;28;20025;-69
2024/03/06 03:41:14;;;;;;;2.95;1.65;;;37.50;90.30;;;;;;5034686;28;20674;-64
2024/03/06 03:43:41;;;;;;;4.28;2.03;;;37.50;90.60;;;;;;5034807;28;20030;-72
2024/03/06 03:46:09;;;;;;;4.15;1.80;;;37.30;90.90;;;;;;5034998;28;20051;-73
2024/03/06 03:48:39;;;;;;;5.68;2.25;;;37.20;90.60;;;;;;5039384;28;20065;-62
2024/03/06 03:51:06;;;;;;;20.30;5.97;;;37.00;90.80;;;;;;5037859;28;20038;-66
2024/03/06 03:53:34;;;;;;;4.43;2.30;;;37.10;90.40;;;;;;5042110;28;20021;-69
2024/03/06 03:56:01;;;;;;;3.30;1.60;;;37.20;90.00;;;;;;5043682;28;20021;-64
2024/03/06 03:58:28;;;;;;;4.55;2.42;;;37.50;87.70;;;;;;5043615;28;20048;-70
2024/03/06 04:00:55;;;;;;;4.43;1.80;;;37.60;88.90;;;;;;5042846;28;20017;-64
2024/03/06 04:03:23;;;;;;;4.35;1.92;;;37.40;89.60;;;;;;5041896;28;20021;-61
2024/03/06 04:05:51;;;;;;;4.38;1.85;;;37.70;89.80;;;;;;5044536;28;20082;-69
2024/03/06 04:08:18;;;;;;;3.72;1.80;;;37.70;88.00;;;;;;5041506;28;20021;-69
2024/03/06 04:10:45;;;;;;;3.85;1.83;;;37.70;89.10;;;;;;5042697;28;20030;-62
2024/03/06 04:13:13;;;;;;;4.30;1.83;;;37.50;89.00;;;;;;5042746;28;20132;-63
2024/03/06 04:15:40;;;;;;;6.07;2.00;;;37.50;87.00;;;;;;5037412;28;20032;-62
2024/03/06 04:18:07;;;;;;;4.05;2.03;;;36.80;87.50;;;;;;5041653;28;20086;-70
2024/03/06 04:20:34;;;;;;;4.05;1.70;;;36.20;87.90;;;;;;5038622;28;20020;-67
2024/03/06 04:23:01;;;;;;;3.80;1.90;;;36.00;90.10;;;;;;5038662;28;20590;-64
2024/03/06 04:25:28;;;;;;;5.90;1.77;;;36.00;88.20;;;;;;5040958;28;20020;-73
2024/03/06 04:27:55;;;;;;;6.10;2.38;;;36.00;88.70;;;;;;5041045;28;20043;-64
2024/03/06 04:30:23;;;;;;;5.30;2.58;;;36.00;90.10;;;;;;5040108;28;20112;-69
2024/03/06 04:32:50;;;;;;;6.18;2.15;;;36.00;90.30;;;;;;5039043;28;20120;-61
2024/03/06 04:35:17;;;;;;;6.50;2.05;;;35.90;90.10;;;;;;5039894;28;20056;-66
2024/03/06 04:37:44;;;;;;;5.53;2.10;;;36.20;90.00;;;;;;5042195;28;20029;-63
2024/03/06 04:40:11;;;;;;;5.60;2.13;;;36.30;89.30;;;;;;5042928;28;20021;-63
2024/03/06 04:42:38;;;;;;;5.38;3.00;;;36.50;89.00;;;;;;5041291;28;20014;-64
2024/03/06 04:45:14;;;;;;;4.22;2.00;;;37.00;90.10;;;;;;5035594;28;20078;-63
2024/03/06 04:47:41;;;;;;;4.55;1.83;;;37.40;88.40;;;;;;5038911;28;20025;-62
2024/03/06 04:50:15;;;;;;;4.32;1.90;;;38.00;88.00;;;;;;5042596;28;20024;-65
2024/03/06 04:52:44;;;;;;;3.67;1.70;;;38.20;88.80;;;;;;5042478;28;20091;-66
2024/03/06 04:55:12;;;;;;;2.55;1.65;;;38.20;86.30;;;;;;5037643;28;20418;-71
2024/03/06 04:57:43;;;;;;;3.10;1.88;;;37.50;87.10;;;;;;5035592;28;20057;-67
2024/03/06 05:00:11;;;;;;;10.50;3.10;;;37.30;88.60;;;;;;5028491;28;20492;-62
2024/03/06 05:02:39;;;;;;;3.17;1.83;;;37.60;89.70;;;;;;5036012;28;20044;-68
2024/03/06 05:05:06;;;;;;;6.05;1.90;;;37.70;89.40;;;;;;5037069;28;20132;-72
2024/03/06 05:07:35;;;;;;;6.15;2.50;;;37.90;89.20;;;;;;5031342;28;20502;-67
2024/03/06 05:10:02;;;;;;;3.92;2.85;;;38.10;88.10;;;;;;5037895;28;20020;-67
2024/03/06 05:12:29;;;;;;;4.93;2.20;;;38.40;88.80;;;;;;5037036;28;20750;-70
2024/03/06 05:14:56;;;;;;;4.85;1.95;;;38.60;88.10;;;;;;5037187;28;20084;-70
2024/03/06 05:17:23;;;;;;;2.88;1.90;;;38.80;87.60;;;;;;5035782;28;20079;-63
2024/03/06 05:19:51;;;;;;;6.45;1.67;;;38.80;87.20;;;;;;5037108;28;20120;-62
2024/03/06 05:22:18;;;;;;;3.55;1.60;;;38.60;86.10;;;;;;5036362;28;20091;-67
2024/03/06 05:24:45;;;;;;;5.47;2.35;;;38.40;86.20;;;;;;5038328;28;20467;-62
2024/03/06 05:27:18;;;;;;;9.65;4.80;;;38.20;86.50;;;;;;5035295;28;20099;-63
2024/03/06 05:29:45;;;;;;;4.15;3.53;;;38.50;87.40;;;;;;5036686;28;20082;-66
2024/03/06 05:32:13;;;;;;;9.38;7.63;;;38.60;88.10;;;;;;5036218;28;20086;-70
2024/03/06 05:34:44;;;;;;;8.50;7.45;;;38.60;90.00;;;;;;5036722;28;20044;-62
2024/03/06 05:37:11;;;;;;;4.55;2.03;;;38.50;88.80;;;;;;5037725;28;20041;-71
2024/03/06 05:39:38;;;;;;;3.83;2.10;;;38.00;88.00;;;;;;5037529;28;20086;-70
2024/03/06 05:42:05;;;;;;;3.70;1.67;;;37.70;88.80;;;;;;5037411;28;20361;-67
2024/03/06 05:44:33;;;;;;;3.75;2.03;;;37.20;89.90;;;;;;5036377;28;20036;-61
2024/03/06 05:47:01;;;;;;;4.47;2.00;;;37.00;89.50;;;;;;5037507;28;20395;-67
2024/03/06 05:49:29;;;;;;;2.42;1.75;;;36.80;89.70;;;;;;5041470;28;20096;-71
2024/03/06 05:51:57;;;;;;;3.80;1.77;;;36.80;88.80;;;;;;5041606;28;20074;-67
2024/03/06 05:54:24;;;;;;;4.40;2.08;;;36.80;88.70;;;;;;5038760;28;20120;-61
2024/03/06 05:56:53;;;;;;;4.22;1.83;;;36.70;89.60;;;;;;5039910;28;20025;-72
2024/03/06 05:59:20;;;;;;;4.30;1.80;;;36.50;90.20;;;;;;5038813;28;20028;-71
2024/03/06 06:01:47;;;;;;;3.17;1.30;;;36.70;90.00;;;;;;5046519;28;20055;-61
2024/03/06 06:04:15;;;;;;;4.13;1.60;;;36.90;90.20;;;;;;5037474;28;20374;-63
2024/03/06 06:06:42;;;;;;;3.50;1.60;;;37.00;90.10;;;;;;5042194;28;20033;-69
2024/03/06 06:09:15;;;;;;;5.70;1.80;;;37.10;90.70;;;;;;5037257;28;20025;-63
2024/03/06 06:11:47;;;;;;;3.10;1.75;;;37.10;89.90;;;;;;5040407;28;20442;-61
2024/03/06 06:14:14;;;;;;;4.32;1.85;;;36.90;90.60;;;;;;5037017;28;20136;-62
2024/03/06 06:16:42;;;;;;;3.15;1.48;;;36.70;90.30;;;;;;5038926;28;20426;-61
2024/03/06 06:19:09;;;;;;;5.00;1.95;;;36.50;90.60;;;;;;5041876;28;20649;-61
2024/03/06 06:21:37;;;;;;;2.80;1.10;;;36.20;90.90;;;;;;5045719;28;20043;-66
2024/03/06 06:24:05;;;;;;;3.45;1.55;;;36.10;90.20;;;;;;5044563;28;20039;-65
2024/03/06 06:26:32;;;;;;;3.42;1.88;;;35.80;90.90;;;;;;5043447;28;20060;-61
2024/03/06 06:28:59;;;;;;;3.30;1.83;;;35.30;91.80;;;;;;5042050;28;20222;-75
2024/03/06 06:31:26;;;;;;;4.38;2.20;;;35.20;92.50;;;;;;5046968;28;21086;-69
2024/03/06 06:33:54;;;;;;;4.25;2.00;;;34.90;92.90;;;;;;5048503;28;20403;-69
2024/03/06 06:36:21;;;;;;;4.97;2.60;;;34.50;93.70;;;;;;5043679;28;20021;-61
2024/03/06 06:38:49;;;;;;;4.78;2.05;;;34.30;94.20;;;;;;5048967;28;21021;-68
2024/03/06 06:41:17;;;;;;;4.85;2.15;;;34.10;94.50;;;;;;5045747;28;20025;-61
2024/03/06 06:43:44;;;;;;;4.20;2.20;;;33.90;95.00;;;;;;5041926;28;20430;-67
2024/03/06 06:46:11;;;;;;;3.85;2.00;;;33.60;95.70;;;;;;5047041;28;20039;-71
2024/03/06 06:48:38;;;;;;;7.57;2.10;;;33.50;95.30;;;;;;5037935;28;20081;-64
2024/03/06 06:51:05;;;;;;;5.20;2.72;;;33.20;95.80;;;;;;5041776;28;20053;-67
2024/03/06 06:53:32;;;;;;;6.80;4.15;;;33.10;96.20;;;;;;5040961;28;20032;-73
2024/03/06 06:55:59;;;;;;;9.35;6.80;;;32.90;96.80;;;;;;5040644;28;20024;-66
2024/03/06 06:58:29;;;;;;;6.85;2.80;;;32.80;96.80;;;;;;5040807;28;20071;-66
2024/03/06 07:00:56;;;;;;;8.70;3.85;;;32.70;96.90;;;;;;5039896;28;20026;-70
2024/03/06 07:03:29;;;;;;;7.57;2.78;;;32.70;96.90;;;;;;5039153;28;20017;-62
2024/03/06 07:05:57;;;;;;;6.90;2.78;;;32.60;97.20;;;;;;5039548;28;20129;-68
2024/03/06 07:08:24;;;;;;;6.28;3.20;;;32.30;97.20;;;;;;5037922;28;20032;-65
2024/03/06 07:10:57;;;;;;;7.25;2.60;;;32.10;97.60;;;;;;5038017;28;20017;-65
2024/03/06 07:13:24;;;;;;;6.65;3.92;;;31.90;97.90;;;;;;5037695;28;20025;-68
2024/03/06 07:15:51;;;;;;;7.30;3.72;;;31.70;98.20;;;;;;5038529;28;20479;-67
2024/03/06 07:18:18;;;;;;;7.57;2.97;;;31.50;98.80;;;;;;5039196;28;20043;-71
2024/03/06 07:20:47;;;;;;;5.82;2.78;;;31.40;99.00;;;;;;5040501;28;20108;-64
2024/03/06 07:23:14;;;;;;;8.40;3.28;;;31.10;99.40;;;;;;5041375;28;20037;-61
2024/03/06 07:25:41;;;;;;;6.57;2.30;;;31.00;99.40;;;;;;5036089;28;20340;-68
2024/03/06 07:28:08;;;;;;;9.60;3.33;;;30.80;99.70;;;;;;5038888;28;20033;-73
2024/03/06 07:30:36;;;;;;;9.52;5.55;;;30.70;99.90;;;;;;5041956;28;20021;-74
2024/03/06 07:33:03;;;;;;;5.75;3.22;;;30.70;99.90;;;;;;5041016;28;20035;-67
2024/03/06 07:35:30;;;;;;;8.02;2.83;;;30.70;99.90;;;;;;5042307;28;20537;-69
2024/03/06 07:37:57;;;;;;;4.80;2.35;;;30.50;99.90;;;;;;5045316;28;20423;-65
2024/03/06 07:40:23;;;;;;;11.63;4.68;;;30.40;99.90;;;;;;5042589;28;20124;-68
2024/03/06 07:42:51;;;;;;;5.80;2.83;;;30.20;99.90;;;;;;5045345;28;20707;-68
2024/03/06 07:45:18;;;;;;;7.97;3.80;;;30.20;99.90;;;;;;5043561;28;20057;-69
2024/03/06 07:47:44;;;;;;;7.25;3.83;;;30.00;99.90;;;;;;5041195;28;20040;-68
2024/03/06 07:50:12;;;;;;;7.30;2.65;;;29.90;99.90;;;;;;5042918;28;20136;-65
2024/03/06 07:52:39;;;;;;;9.73;6.72;;;29.80;99.90;;;;;;5042647;28;20025;-66
2024/03/06 07:55:06;;;;;;;4.50;2.28;;;29.70;99.90;;;;;;5047728;28;20044;-61
2024/03/06 07:57:33;;;;;;;5.50;2.50;;;29.60;99.90;;;;;;5047201;28;20033;-61
2024/03/06 08:00:00;;;;;;;8.52;3.42;;;29.60;99.90;;;;;;5044572;28;20839;-69
2024/03/06 08:02:28;;;;;;;6.65;2.58;;;29.50;99.90;;;;;;5046688;28;20517;-63
2024/03/06 08:04:55;;;;;;;7.68;3.28;;;29.40;99.90;;;;;;5050783;28;20029;-68
2024/03/06 08:07:22;;;;;;;11.02;5.35;;;29.20;99.90;;;;;;5050900;28;20115;-62
2024/03/06 08:09:49;;;;;;;5.85;2.92;;;29.00;99.90;;;;;;5051717;28;20021;-70
2024/03/06 08:12:16;;;;;;;7.97;2.95;;;28.90;99.90;;;;;;5045181;28;20611;-62
2024/03/06 08:14:43;;;;;;;7.97;2.90;;;28.80;99.90;;;;;;5051395;28;20021;-69
2024/03/06 08:17:10;;;;;;;8.30;2.80;;;28.80;99.90;;;;;;5043025;28;20498;-62
2024/03/06 08:19:37;;;;;;;6.45;2.50;;;28.60;99.90;;;;;;5047821;28;20119;-68
2024/03/06 08:22:04;;;;;;;9.10;3.00;;;28.50;99.90;;;;;;5049362;28;20035;-62
2024/03/06 08:24:31;;;;;;;6.13;2.80;;;28.40;99.90;;;;;;5050738;28;20500;-61
2024/03/06 08:26:59;;;;;;;7.63;3.63;;;28.20;99.90;;;;;;5045775;28;20415;-61
2024/03/06 08:29:27;;;;;;;7.00;3.70;;;28.10;99.90;;;;;;5042562;28;20035;-63
2024/03/06 08:31:57;;;;;;;6.88;2.40;;;27.90;99.90;;;;;;5049821;28;20032;-74
2024/03/06 08:34:24;;;;;;;7.07;2.88;;;27.80;99.90;;;;;;5047249;28;20036;-63
2024/03/06 08:36:53;;;;;;;7.63;3.70;;;27.80;99.90;;;;;;5046050;28;20025;-74
2024/03/06 08:39:20;;;;;;;6.85;2.97;;;27.60;99.90;;;;;;5041460;28;20039;-76
2024/03/06 08:41:47;;;;;;;7.53;2.67;;;27.50;99.90;;;;;;5042091;28;20029;-62
2024/03/06 08:44:14;;;;;;;6.80;2.60;;;27.40;99.90;;;;;;5041207;28;20025;-70
2024/03/06 08:46:41;;;;;;;6.40;2.70;;;27.20;99.90;;;;;;5042331;28;20040;-61
2024/03/06 08:49:08;;;;;;;14.25;9.05;;;27.20;99.90;;;;;;5047004;28;20036;-74
2024/03/06 08:51:35;;;;;;;20.20;13.02;;;27.10;99.90;;;;;;5045167;28;20111;-63
2024/03/06 08:54:02;;;;;;;8.07;2.70;;;27.00;99.90;;;;;;5045066;28;20050;-74
2024/03/06 08:56:29;;;;;;;7.20;3.17;;;26.90;99.90;;;;;;5042611;28;20372;-71
2024/03/06 08:58:56;;;;;;;7.43;3.70;;;26.80;99.90;;;;;;5043076;28;20784;-72
2024/03/06 09:01:25;;;;;;;8.98;3.67;;;26.70;99.90;;;;;;5043175;28;20123;-65
2024/03/06 09:03:52;;;;;;;8.90;3.97;;;26.60;99.90;;;;;;5043535;28;20021;-63
2024/03/06 09:06:19;;;;;;;8.20;2.75;;;26.40;99.90;;;;;;5039881;28;20499;-61
2024/03/06 09:08:48;;;;;;;10.30;3.70;;;26.40;99.90;;;;;;5040838;28;20067;-63
2024/03/06 09:11:15;;;;;;;10.65;4.60;;;26.20;99.90;;;;;;5038913;28;20557;-70
2024/03/06 09:13:42;;;;;;;10.07;3.78;;;26.10;99.90;;;;;;5040273;28;20112;-64
2024/03/06 09:16:09;;;;;;;8.15;3.72;;;26.10;99.90;;;;;;5035126;28;20024;-64
2024/03/06 09:18:36;;;;;;;11.27;5.10;;;26.10;99.90;;;;;;5041796;28;20467;-74
2024/03/06 09:21:03;;;;;;;7.63;3.55;;;25.90;99.90;;;;;;5038417;28;20032;-73
2024/03/06 09:23:32;;;;;;;9.52;3.10;;;25.80;99.90;;;;;;5037452;28;20013;-65
2024/03/06 09:25:59;;;;;;;9.35;2.97;;;26.00;99.90;;;;;;5036488;28;20025;-72
2024/03/06 09:28:26;;;;;;;6.53;2.72;;;25.90;99.90;;;;;;5037987;28;20040;-70
2024/03/06 09:30:53;;;;;;;7.32;2.47;;;25.90;99.90;;;;;;5040677;28;20025;-73
2024/03/06 09:35:48;;;;;;;8.10;2.67;;;25.70;99.90;;;;;;5036237;28;20056;-65
2024/03/06 09:38:15;;;;;;;6.03;3.00;;;25.70;99.90;;;;;;5037523;28;20077;-65
2024/03/06 09:40:42;;;;;;;11.80;5.85;;;25.60;99.90;;;;;;5038156;28;20029;-73
2024/03/06 09:43:09;;;;;;;12.07;6.28;;;25.40;99.90;;;;;;5039494;28;20024;-64
2024/03/06 09:45:38;;;;;;;9.52;3.95;;;25.20;99.90;;;;;;5037527;28;20083;-63
2024/03/06 09:48:06;;;;;;;11.70;4.03;;;25.10;99.90;;;;;;5036153;28;20107;-63
2024/03/06 09:50:37;;;;;;;7.75;3.30;;;25.10;99.90;;;;;;5037498;28;20075;-73
2024/03/06 09:53:06;;;;;;;10.07;4.05;;;25.00;99.90;;;;;;5035754;28;20084;-69
2024/03/06 09:55:35;;;;;;;7.72;3.47;;;24.90;99.90;;;;;;5039733;28;20057;-71
2024/03/06 09:58:04;;;;;;;8.15;3.35;;;24.90;99.90;;;;;;5033784;28;20587;-64
2024/03/06 10:00:32;;;;;;;8.13;3.05;;;24.80;99.90;;;;;;5027769;28;20410;-64
2024/03/06 10:03:00;;;;;;;9.18;3.22;;;24.70;99.90;;;;;;5045457;28;20522;-69
2024/03/06 10:05:27;;;;;;;9.30;2.92;;;24.80;99.90;;;;;;5041300;28;20033;-68
2024/03/06 10:07:54;;;;;;;5.28;2.40;;;24.80;99.90;;;;;;5043017;28;20082;-62
2024/03/06 10:10:24;;;;;;;11.25;4.00;;;24.80;99.90;;;;;;5041298;28;20027;-67
2024/03/06 10:12:52;;;;;;;8.85;3.78;;;24.80;99.90;;;;;;5041638;28;20091;-63
2024/03/06 10:15:19;;;;;;;5.20;2.67;;;24.70;99.90;;;;;;5042512;28;20112;-68
2024/03/06 10:17:46;;;;;;;6.13;2.60;;;24.70;99.90;;;;;;5039237;28;20465;-66
2024/03/06 10:20:21;;;;;;;11.98;2.97;;;24.60;99.90;;;;;;5040813;28;20102;-67
2024/03/06 10:22:53;;;;;;;9.98;2.80;;;24.60;99.90;;;;;;5041387;28;20025;-64
2024/03/06 10:25:24;;;;;;;6.75;2.65;;;24.70;99.90;;;;;;5040940;28;20025;-65
2024/03/06 10:28:11;;;;;;;8.88;2.80;;;24.60;99.90;;;;;;5041947;28;20037;-62
2024/03/06 10:30:43;;;;;;;6.70;2.47;;;24.40;99.90;;;;;;5042086;28;20036;-63
2024/03/06 10:33:10;;;;;;;10.35;3.17;;;24.20;99.90;;;;;;5042095;28;20094;-67
2024/03/06 10:35:39;;;;;;;7.70;3.47;;;24.20;99.90;;;;;;4691577;28;10000675;-64
2024/03/06 10:38:08;;;;;;;8.48;3.40;;;24.10;99.90;;;;;;5038829;28;20037;-67
2024/03/06 10:40:36;;;;;;;10.70;2.88;;;23.90;99.90;;;;;;5034779;28;20104;-64
2024/03/06 10:43:08;;;;;;;7.78;3.17;;;23.90;99.90;;;;;;5038285;28;20432;-65
2024/03/06 10:45:49;;;;;;;6.90;2.25;;;23.90;99.90;;;;;;5038375;28;20029;-65
2024/03/06 10:48:17;;;;;;;8.10;2.58;;;23.80;99.90;;;;;;5036706;28;20040;-64
2024/03/06 10:50:46;;;;;;;11.57;3.50;;;23.70;99.90;;;;;;5038379;28;20056;-68
2024/03/06 10:53:17;;;;;;;10.00;3.55;;;23.60;99.90;;;;;;5032785;28;20033;-68
2024/03/06 10:55:45;;;;;;;7.22;3.00;;;23.50;99.90;;;;;;5034151;28;20120;-68
2024/03/06 10:58:13;;;;;;;7.75;2.72;;;23.70;99.90;;;;;;5036684;28;20450;-68
2024/03/06 11:00:51;;;;;;;8.55;3.25;;;23.60;99.90;;;;;;5038029;28;20040;-68
2024/03/06 11:03:18;;;;;;;9.45;3.17;;;23.60;99.90;;;;;;5034892;28;20443;-67
2024/03/06 11:05:51;;;;;;;15.73;9.93;;;23.60;99.90;;;;;;5037624;28;20028;-69
2024/03/06 11:08:19;;;;;;;10.63;5.78;;;23.60;99.90;;;;;;5037599;28;20029;-64
2024/03/06 11:10:46;;;;;;;13.40;8.63;;;23.70;99.90;;;;;;5035634;28;20499;-65
2024/03/06 11:13:28;;;;;;;11.38;2.65;;;23.80;99.90;;;;;;5038379;28;20391;-68
2024/03/06 11:15:58;;;;;;;;;;;23.60;99.90;;;;;;5039472;28;20032;-64
2024/03/06 11:18:33;;;;;;;10.63;3.00;;;23.40;99.90;;;;;;5036741;28;20399;-63
2024/03/06 11:21:03;;;;;;;8.20;2.47;;;23.30;99.90;;;;;;5037898;28;20020;-62
2024/03/06 11:23:33;;;;;;;8.48;2.72;;;23.20;99.90;;;;;;5032567;28;20041;-70
2024/03/06 11:26:09;;;;;;;14.73;3.75;;;23.30;99.90;;;;;;5037263;28;20032;-70
2024/03/06 11:28:40;;;;;;;11.88;3.67;;;23.50;99.90;;;;;;5039702;28;20728;-71
2024/03/06 11:31:20;;;;;;;11.77;3.50;;;23.70;99.90;;;;;;5042052;28;20024;-62
2024/03/06 11:33:52;;;;;;;11.88;3.30;;;23.60;99.90;;;;;;5040281;28;20040;-73
2024/03/06 11:36:25;;;;;;;9.00;3.15;;;23.50;99.90;;;;;;5041553;28;20435;-63
2024/03/06 11:38:59;;;;;;;11.82;3.42;;;23.40;99.90;;;;;;5040318;28;20025;-72
2024/03/06 11:41:31;;;;;;;10.60;3.28;;;23.30;99.90;;;;;;5041865;28;20032;-72
2024/03/06 11:44:00;;;;;;;12.87;3.60;;;23.10;99.90;;;;;;5039681;28;20516;-72
2024/03/06 11:47:05;;;;;;;14.95;3.70;;;22.90;99.90;;;;;;5042641;28;20021;-71
2024/03/06 11:49:34;;;;;;;13.88;3.42;;;22.90;99.90;;;;;;5041128;28;20029;-63
2024/03/06 11:52:08;;;;;;;17.92;4.18;;;22.90;99.90;;;;;;5040595;28;21519;-62
2024/03/06 11:54:35;;;;;;;12.63;3.63;;;22.80;99.90;;;;;;5043782;28;20380;-71
2024/03/06 11:57:04;;;;;;;11.18;2.88;;;22.80;99.90;;;;;;5043537;28;20112;-71
2024/03/06 11:59:33;;;;;;;10.65;3.50;;;22.90;99.90;;;;;;5043865;28;20036;-62
2024/03/06 12:02:01;;;;;;;11.88;5.40;;;22.90;99.90;;;;;;5042985;28;20136;-60
2024/03/06 12:04:30;;;;;;;24.95;14.35;;;22.90;99.90;;;;;;5044972;28;20035;-61
2024/03/06 12:07:09;;;;;;;29.75;18.95;;;22.80;99.90;;;;;;5048372;28;20570;-71
2024/03/06 12:09:39;;;;;;;20.67;13.25;;;22.70;99.90;;;;;;5043887;28;20103;-71
2024/03/06 12:12:07;;;;;;;20.80;13.32;;;22.80;99.90;;;;;;5044592;28;20450;-61
2024/03/06 12:14:36;;;;;;;22.73;14.38;;;23.00;99.90;;;;;;5045544;28;20017;-70
2024/03/06 12:17:04;;;;;;;22.42;15.18;;;23.00;99.90;;;;;;5045196;28;20090;-70
2024/03/06 12:19:35;;;;;;;22.65;13.57;;;22.80;99.90;;;;;;5045361;28;20103;-61
2024/03/06 12:22:05;;;;;;;24.67;17.08;;;22.60;99.90;;;;;;5027628;28;20025;-70
2024/03/06 12:24:32;;;;;;;26.40;18.98;;;22.70;99.90;;;;;;5045462;28;20025;-62
2024/03/06 12:27:05;;;;;;;24.08;16.77;;;22.70;99.90;;;;;;5045335;28;20091;-71
2024/03/06 12:29:33;;;;;;;24.67;17.35;;;22.60;99.90;;;;;;5045345;28;20463;-62
2024/03/06 12:32:01;;;;;;;20.90;14.85;;;22.60;99.90;;;;;;5026124;28;20040;-71
2024/03/06 12:34:30;;;;;;;24.10;14.65;;;22.50;99.90;;;;;;5044712;28;20037;-61
2024/03/06 12:36:57;;;;;;;19.60;13.63;;;22.40;99.90;;;;;;5043351;28;20466;-70
2024/03/06 12:39:24;;;;;;;19.98;12.18;;;22.40;99.90;;;;;;5044612;28;20099;-70
2024/03/06 12:41:52;;;;;;;16.90;11.05;;;22.40;99.90;;;;;;5044362;28;20467;-71
2024/03/06 12:44:22;;;;;;;19.80;11.48;;;22.50;99.90;;;;;;5043390;28;20029;-61
2024/03/06 12:46:49;;;;;;;15.95;10.60;;;22.60;99.90;;;;;;5044661;28;20029;-71
2024/03/06 12:49:18;;;;;;;17.02;9.25;;;22.60;99.90;;;;;;5042091;28;20024;-70
2024/03/06 12:51:45;;;;;;;17.98;9.40;;;22.60;99.90;;;;;;5044519;28;20383;-70
2024/03/06 12:54:12;;;;;;;14.77;9.02;;;22.70;99.90;;;;;;5044636;28;20025;-70